createdAt,value
2023-01-13T00:00:31.679Z,99678.25
2023-01-13T00:02:35.018Z,99660.06
2023-01-13T00:04:38.280Z,99668.88
2023-01-13T00:06:41.470Z,99677.66
2023-01-13T00:08:45.247Z,99679.31
2023-01-13T00:10:49.248Z,99677.66
2023-01-13T00:12:53.567Z,99677.66
2023-01-13T00:14:58.187Z,99674.34
2023-01-13T00:17:01.403Z,99690.84
2023-01-13T00:19:04.734Z,99687.41
2023-01-13T00:21:10.830Z,99691.94
2023-01-13T00:23:14.071Z,99685.03
2023-01-13T00:25:17.561Z,99685.28
2023-01-13T00:27:20.827Z,99689.94
2023-01-13T00:29:24.125Z,99693.75
2023-01-13T00:31:29.989Z,99691.47
2023-01-13T00:33:33.319Z,99693.63
2023-01-13T00:35:36.533Z,99695.75
2023-01-13T00:37:41.159Z,99687.47
2023-01-13T00:39:44.444Z,99684.38
2023-01-13T00:42:05.340Z,99684.59
2023-01-13T00:44:08.667Z,99692.91
2023-01-13T00:46:14.934Z,99684.59
2023-01-13T00:48:20.100Z,99679.00
2023-01-13T00:50:23.418Z,99676.88
2023-01-13T00:52:27.267Z,99662.50
2023-01-13T00:54:30.518Z,99663.91
2023-01-13T00:56:40.185Z,99675.75
2023-01-13T00:58:45.102Z,99679.09
2023-01-13T01:00:48.246Z,99685.72
2023-01-13T01:02:51.406Z,99679.28
2023-01-13T01:04:55.938Z,99678.06
2023-01-13T01:06:59.113Z,99678.50
2023-01-13T01:09:02.316Z,99687.50
2023-01-13T01:11:07.557Z,99694.84
2023-01-13T01:13:11.855Z,99690.78
2023-01-13T01:15:14.972Z,99704.09
2023-01-13T01:17:18.167Z,99702.66
2023-01-13T01:19:21.339Z,99702.97
2023-01-13T01:21:27.660Z,99711.03
2023-01-13T01:23:31.674Z,99708.75
2023-01-13T01:25:34.801Z,99713.34
2023-01-13T01:27:37.914Z,99712.72
2023-01-13T01:29:41.114Z,99713.81
2023-01-13T01:31:45.601Z,99708.81
2023-01-13T01:33:50.427Z,99702.75
2023-01-13T01:35:53.931Z,99717.69
2023-01-13T01:37:58.473Z,99704.03
2023-01-13T01:40:01.625Z,99718.84
2023-01-13T01:42:22.454Z,99717.19
2023-01-13T01:45:03.188Z,99708.63
2023-01-13T01:47:06.854Z,99705.28
2023-01-13T01:49:16.369Z,99715.72
2023-01-13T01:51:19.541Z,99717.50
2023-01-13T01:53:28.153Z,99722.63
2023-01-13T01:55:36.944Z,99719.91
2023-01-13T01:57:44.346Z,99720.72
2023-01-13T01:59:47.594Z,99710.19
2023-01-13T02:01:50.986Z,99713.75
2023-01-13T02:04:00.480Z,99713.63
2023-01-13T02:06:04.242Z,99711.75
2023-01-13T02:08:10.096Z,99709.88
2023-01-13T02:10:16.704Z,99715.09
2023-01-13T02:12:32.023Z,99722.06
2023-01-13T02:14:36.370Z,99707.25
2023-01-13T02:16:44.641Z,99722.91
2023-01-13T02:18:57.078Z,99718.53
2023-01-13T02:21:24.206Z,99714.13
2023-01-13T02:24:26.001Z,99733.13
2023-01-13T02:26:56.223Z,99720.09
2023-01-13T02:29:30.902Z,99732.19
2023-01-13T02:31:45.310Z,99720.91
2023-01-13T02:34:02.794Z,99711.53
2023-01-13T02:36:12.725Z,99716.97
2023-01-13T02:38:19.535Z,99715.28
2023-01-13T02:40:26.860Z,99714.56
2023-01-13T02:42:55.444Z,99717.41
2023-01-13T02:45:08.380Z,99706.22
2023-01-13T02:47:22.397Z,99712.41
2023-01-13T02:49:32.414Z,99702.91
2023-01-13T02:51:37.285Z,99705.72
2023-01-13T02:53:45.720Z,99710.09
2023-01-13T02:55:52.732Z,99709.28
2023-01-13T02:57:59.560Z,99708.56
2023-01-13T03:00:04.537Z,99721.59
2023-01-13T03:02:10.483Z,99714.84
2023-01-13T03:04:17.166Z,99716.63
2023-01-13T03:06:40.273Z,99719.34
2023-01-13T03:08:50.627Z,99723.00
2023-01-13T03:11:05.069Z,99724.03
2023-01-13T03:13:26.894Z,99730.28
2023-01-13T03:15:40.394Z,99735.59
2023-01-13T03:17:50.337Z,99737.50
2023-01-13T03:20:06.028Z,99745.41
2023-01-13T03:22:19.184Z,99743.03
2023-01-13T03:24:29.636Z,99746.34
2023-01-13T03:26:38.036Z,99733.31
2023-01-13T03:28:46.830Z,99736.66
2023-01-13T03:30:54.568Z,99753.13
2023-01-13T03:33:03.643Z,99751.34
2023-01-13T03:35:13.822Z,99757.50
2023-01-13T03:37:22.060Z,99760.22
2023-01-13T03:39:31.371Z,99766.47
2023-01-13T03:41:39.120Z,99762.22
2023-01-13T03:44:04.712Z,99756.25
2023-01-13T03:46:12.427Z,99768.56
2023-01-13T03:48:19.140Z,99759.22
2023-01-13T03:50:29.394Z,99762.03
2023-01-13T03:52:35.872Z,99774.44
2023-01-13T03:54:46.420Z,99766.72
2023-01-13T03:56:55.684Z,99759.94
2023-01-13T03:59:00.668Z,99759.22
2023-01-13T04:01:11.133Z,99754.19
2023-01-13T04:03:21.580Z,99744.81
2023-01-13T04:05:27.070Z,99744.09
2023-01-13T04:07:39.045Z,99743.47
2023-01-13T04:09:49.434Z,99746.31
2023-01-13T04:11:58.191Z,99742.97
2023-01-13T04:14:03.956Z,99741.50
2023-01-13T04:16:09.241Z,99737.34
2023-01-13T04:18:19.120Z,99727.13
2023-01-13T04:20:22.573Z,99728.16
2023-01-13T04:22:27.118Z,99732.75
2023-01-13T04:24:30.285Z,99734.63
2023-01-13T04:26:33.423Z,99725.25
2023-01-13T04:28:36.565Z,99727.09
2023-01-13T04:30:40.178Z,99726.31
2023-01-13T04:32:43.300Z,99727.34
2023-01-13T04:34:46.400Z,99735.16
2023-01-13T04:36:49.477Z,99735.25
2023-01-13T04:38:54.031Z,99738.78
2023-01-13T04:40:57.105Z,99736.28
2023-01-13T04:43:00.149Z,99733.78
2023-01-13T04:45:03.380Z,99735.66
2023-01-13T04:47:06.992Z,99728.88
2023-01-13T04:49:10.067Z,99732.44
2023-01-13T04:51:13.150Z,99739.50
2023-01-13T04:53:16.341Z,99725.75
2023-01-13T04:55:22.034Z,99725.75
2023-01-13T04:57:25.988Z,99723.34
2023-01-13T04:59:29.003Z,99738.97
2023-01-13T05:01:32.439Z,99738.13
2023-01-13T05:03:35.521Z,99739.06
2023-01-13T05:05:38.994Z,99733.13
2023-01-13T05:07:42.089Z,99742.72
2023-01-13T05:09:45.196Z,99744.38
2023-01-13T05:12:07.546Z,99729.59
2023-01-13T05:14:28.377Z,99729.59
2023-01-13T05:16:49.087Z,99724.38
2023-01-13T05:18:52.260Z,99723.53
2023-01-13T05:20:55.339Z,99727.09
2023-01-13T05:23:16.015Z,99720.25
2023-01-13T05:25:25.302Z,99723.78
2023-01-13T05:27:30.447Z,99714.41
2023-01-13T05:29:33.602Z,99721.38
2023-01-13T05:31:36.737Z,99719.72
2023-01-13T05:33:39.860Z,99714.50
2023-01-13T05:35:44.818Z,99716.16
2023-01-13T05:37:48.532Z,99718.56
2023-01-13T05:40:14.672Z,99711.47
2023-01-13T05:42:40.382Z,99726.06
2023-01-13T05:44:44.929Z,99719.81
2023-01-13T05:46:48.098Z,99723.34
2023-01-13T05:48:51.177Z,99716.47
2023-01-13T05:50:54.999Z,99725.13
2023-01-13T05:52:58.042Z,99722.63
2023-01-13T05:55:01.242Z,99715.63
2023-01-13T05:57:04.412Z,99713.13
2023-01-13T05:59:07.493Z,99718.34
2023-01-13T06:01:12.213Z,99713.97
2023-01-13T06:03:16.452Z,99720.00
2023-01-13T06:05:19.568Z,99716.47
2023-01-13T06:07:22.628Z,99725.00
2023-01-13T06:09:25.732Z,99723.97
2023-01-13T06:11:28.871Z,99721.06
2023-01-13T06:13:32.159Z,99720.88
2023-01-13T06:15:35.243Z,99724.22
2023-01-13T06:17:39.715Z,99716.28
2023-01-13T06:19:43.567Z,99731.72
2023-01-13T06:21:46.680Z,99716.19
2023-01-13T06:23:49.755Z,99708.38
2023-01-13T06:25:59.662Z,99716.94
2023-01-13T06:28:03.083Z,99711.72
2023-01-13T06:30:06.974Z,99711.72
2023-01-13T06:32:15.971Z,99713.59
2023-01-13T06:34:20.829Z,99706.72
2023-01-13T06:36:26.403Z,99708.59
2023-01-13T06:38:34.280Z,99707.03
2023-01-13T06:40:37.801Z,99710.47
2023-01-13T06:43:02.053Z,99712.97
2023-01-13T06:45:05.834Z,99710.25
2023-01-13T06:47:09.614Z,99712.84
2023-01-13T06:49:12.802Z,99713.06
2023-01-13T06:51:17.345Z,99717.53
2023-01-13T06:53:20.718Z,99711.59
2023-01-13T06:55:23.916Z,99707.44
2023-01-13T06:57:26.992Z,99704.91
2023-01-13T06:59:30.166Z,99706.78
2023-01-13T07:01:33.322Z,99706.06
2023-01-13T07:03:36.490Z,99707.72
2023-01-13T07:05:40.286Z,99706.78
2023-01-13T07:07:45.160Z,99714.41
2023-01-13T07:09:48.187Z,99707.31
2023-01-13T07:11:52.738Z,99710.66
2023-01-13T07:14:13.272Z,99713.06
2023-01-13T07:16:16.401Z,99719.00
2023-01-13T07:18:19.522Z,99725.03
2023-01-13T07:20:22.550Z,99725.03
2023-01-13T07:22:25.649Z,99721.50
2023-01-13T07:24:30.124Z,99721.50
2023-01-13T07:26:33.182Z,99727.53
2023-01-13T07:28:37.115Z,99718.78
2023-01-13T07:30:40.247Z,99718.78
2023-01-13T07:32:43.625Z,99714.63
2023-01-13T07:34:46.743Z,99719.00
2023-01-13T07:36:49.866Z,99724.22
2023-01-13T07:38:54.844Z,99708.59
2023-01-13T07:41:19.720Z,99715.47
2023-01-13T07:43:34.274Z,99714.53
2023-01-13T07:45:37.389Z,99711.91
2023-01-13T07:47:41.329Z,99715.25
2023-01-13T07:49:44.486Z,99703.91
2023-01-13T07:51:47.560Z,99698.69
2023-01-13T07:53:50.598Z,99714.22
2023-01-13T07:55:57.047Z,99713.16
2023-01-13T07:58:01.429Z,99705.13
2023-01-13T08:00:05.169Z,99714.50
2023-01-13T08:02:12.759Z,99713.56
2023-01-13T08:04:15.947Z,99716.06
2023-01-13T08:06:19.152Z,99715.03
2023-01-13T08:08:22.195Z,99702.63
2023-01-13T08:10:25.280Z,99711.91
2023-01-13T08:12:53.038Z,99708.16
2023-01-13T08:15:01.341Z,99711.25
2023-01-13T08:17:04.435Z,99701.38
2023-01-13T08:19:07.559Z,99700.22
2023-01-13T08:21:13.475Z,99705.22
2023-01-13T08:23:16.964Z,99705.00
2023-01-13T08:25:20.136Z,99705.63
2023-01-13T08:27:23.277Z,99712.41
2023-01-13T08:29:26.346Z,99719.97
2023-01-13T08:31:30.917Z,99717.16
2023-01-13T08:33:34.567Z,99714.34
2023-01-13T08:35:38.365Z,99713.31
2023-01-13T08:37:41.536Z,99714.88
2023-01-13T08:39:44.608Z,99719.03
2023-01-13T08:41:56.890Z,99723.19
2023-01-13T08:43:59.955Z,99716.84
2023-01-13T08:46:05.205Z,99718.28
2023-01-13T08:48:10.117Z,99711.88
2023-01-13T08:50:13.712Z,99710.84
2023-01-13T08:52:17.283Z,99715.00
2023-01-13T08:54:20.933Z,99707.91
2023-01-13T08:56:24.036Z,99712.06
2023-01-13T08:58:27.130Z,99720.63
2023-01-13T09:00:30.235Z,99706.53
2023-01-13T09:02:33.688Z,99702.03
2023-01-13T09:04:38.472Z,99694.94
2023-01-13T09:06:41.670Z,99700.88
2023-01-13T09:08:47.370Z,99693.88
2023-01-13T09:10:50.563Z,99702.53
2023-01-13T09:13:10.918Z,99704.22
2023-01-13T09:15:14.638Z,99699.78
2023-01-13T09:17:18.515Z,99703.38
2023-01-13T09:19:21.565Z,99707.41
2023-01-13T09:21:26.063Z,99691.63
2023-01-13T09:23:29.206Z,99692.38
2023-01-13T09:25:35.684Z,99694.97
2023-01-13T09:27:38.697Z,99689.75
2023-01-13T09:29:42.078Z,99694.75
2023-01-13T09:31:45.567Z,99697.16
2023-01-13T09:34:06.333Z,99698.59
2023-01-13T09:36:09.725Z,99702.66
2023-01-13T09:38:14.223Z,99690.31
2023-01-13T09:40:22.582Z,99710.00
2023-01-13T09:42:51.317Z,99711.34
2023-01-13T09:45:01.718Z,99706.72
2023-01-13T09:47:12.049Z,99709.22
2023-01-13T09:49:22.159Z,99700.44
2023-01-13T09:51:31.699Z,99706.50
2023-01-13T09:53:41.104Z,99712.66
2023-01-13T09:55:45.519Z,99714.44
2023-01-13T09:57:48.634Z,99705.06
2023-01-13T09:59:51.894Z,99699.13
2023-01-13T10:02:05.971Z,99704.44
2023-01-13T10:04:12.733Z,99703.84
2023-01-13T10:06:21.030Z,99718.66
2023-01-13T10:08:28.004Z,99706.56
2023-01-13T10:10:38.315Z,99709.31
2023-01-13T10:12:59.787Z,99709.31
2023-01-13T10:15:02.856Z,99696.97
2023-01-13T10:17:17.912Z,99696.72
2023-01-13T10:19:27.638Z,99700.78
2023-01-13T10:22:05.129Z,99708.41
2023-01-13T10:24:16.769Z,99699.41
2023-01-13T10:26:30.484Z,99701.06
2023-01-13T10:28:33.532Z,99709.63
2023-01-13T10:30:40.055Z,99700.84
2023-01-13T10:32:44.850Z,99714.63
2023-01-13T10:34:49.918Z,99712.13
2023-01-13T10:37:02.638Z,99708.78
2023-01-13T10:39:10.716Z,99709.84
2023-01-13T10:41:26.168Z,99728.34
2023-01-13T10:43:30.794Z,99724.28
2023-01-13T10:45:33.838Z,99732.31
2023-01-13T10:47:38.377Z,99728.28
2023-01-13T10:49:41.594Z,99738.13
2023-01-13T10:51:46.226Z,99742.94
2023-01-13T10:53:59.144Z,99738.38
2023-01-13T10:56:06.258Z,99733.13
2023-01-13T10:58:19.967Z,99737.31
2023-01-13T11:00:31.712Z,99754.34
2023-01-13T11:02:36.797Z,99736.41
2023-01-13T11:04:43.558Z,99731.44
2023-01-13T11:06:47.317Z,99729.97
2023-01-13T11:08:52.421Z,99723.31
2023-01-13T11:10:57.508Z,99724.34
2023-01-13T11:13:08.534Z,99730.59
2023-01-13T11:15:18.101Z,99728.94
2023-01-13T11:17:33.788Z,99722.69
2023-01-13T11:19:42.415Z,99719.75
2023-01-13T11:21:54.495Z,99721.84
2023-01-13T11:24:06.885Z,99722.09
2023-01-13T11:26:15.553Z,99717.19
2023-01-13T11:28:36.965Z,99729.47
2023-01-13T11:30:50.664Z,99729.50
2023-01-13T11:33:17.985Z,99717.00
2023-01-13T11:35:23.026Z,99714.22
2023-01-13T11:37:28.771Z,99714.06
2023-01-13T11:39:44.070Z,99712.44
2023-01-13T11:42:13.280Z,99712.81
2023-01-13T11:44:21.355Z,99723.88
2023-01-13T11:46:28.781Z,99735.16
2023-01-13T11:48:36.677Z,99720.66
2023-01-13T11:50:48.070Z,99721.81
2023-01-13T11:53:10.783Z,99720.38
2023-01-13T11:55:27.277Z,99719.06
2023-01-13T11:57:53.521Z,99717.72
2023-01-13T12:00:13.806Z,99718.16
2023-01-13T12:02:31.695Z,99723.72
2023-01-13T12:04:45.272Z,99739.81
2023-01-13T12:06:58.496Z,99725.44
2023-01-13T12:09:38.492Z,99724.13
2023-01-13T12:12:09.934Z,99735.84
2023-01-13T12:14:25.801Z,99721.56
2023-01-13T12:16:30.858Z,99713.13
2023-01-13T12:18:56.712Z,99710.84
2023-01-13T12:21:14.159Z,99727.69
2023-01-13T12:23:28.057Z,99720.09
2023-01-13T12:25:39.653Z,99722.19
2023-01-13T12:27:47.126Z,99717.19
2023-01-13T12:29:55.576Z,99722.50
2023-01-13T12:32:01.626Z,99717.41
2023-01-13T12:34:24.120Z,99730.53
2023-01-13T12:36:33.649Z,99728.88
2023-01-13T12:38:38.741Z,99733.38
2023-01-13T12:40:55.321Z,99730.88
2023-01-13T12:43:27.486Z,99736.19
2023-01-13T12:45:32.481Z,99732.84
2023-01-13T12:47:38.337Z,99735.56
2023-01-13T12:49:45.858Z,99741.03
2023-01-13T12:52:14.802Z,99746.44
2023-01-13T12:55:01.839Z,99739.78
2023-01-13T12:57:20.648Z,99755.84
2023-01-13T12:59:51.112Z,99757.94
2023-01-13T13:02:30.006Z,99761.94
2023-01-13T13:04:48.117Z,99753.59
2023-01-13T13:06:58.806Z,99760.88
2023-01-13T13:09:06.737Z,99755.88
2023-01-13T13:11:39.529Z,99769.09
2023-01-13T13:13:47.439Z,99776.94
2023-01-13T13:15:52.645Z,99767.34
2023-01-13T13:18:05.283Z,99764.63
2023-01-13T13:20:54.894Z,99761.81
2023-01-13T13:22:58.027Z,99759.00
2023-01-13T13:25:24.807Z,99767.56
2023-01-13T13:27:35.453Z,99756.91
2023-01-13T13:29:54.194Z,99762.75
2023-01-13T13:32:16.863Z,99770.22
2023-01-13T13:34:30.651Z,99763.97
2023-01-13T13:36:54.889Z,99781.91
2023-01-13T13:39:35.918Z,99762.63
2023-01-13T13:42:01.728Z,99773.78
2023-01-13T13:44:34.954Z,99778.06
2023-01-13T13:46:49.453Z,99786.72
2023-01-13T13:48:54.620Z,99771.06
2023-01-13T13:51:02.204Z,99796.41
2023-01-13T13:53:09.498Z,99778.38
2023-01-13T13:55:18.786Z,99794.94
2023-01-13T13:57:29.074Z,99790.88
2023-01-13T13:59:33.704Z,99796.28
2023-01-13T14:01:41.106Z,99788.81
2023-01-13T14:03:44.583Z,99792.56
2023-01-13T14:05:59.382Z,99801.44
2023-01-13T14:08:05.130Z,99790.28
2023-01-13T14:10:15.271Z,99785.28
2023-01-13T14:12:21.209Z,99791.53
2023-01-13T14:14:25.041Z,99799.44
2023-01-13T14:16:28.342Z,99801.31
2023-01-13T14:18:33.863Z,99797.97
2023-01-13T14:20:37.220Z,99805.88
2023-01-13T14:22:40.307Z,99797.47
2023-01-13T14:24:47.646Z,99789.88
2023-01-13T14:26:53.258Z,99786.53
2023-01-13T14:28:58.600Z,99791.94
2023-01-13T14:31:02.597Z,99790.28
2023-01-13T14:33:16.630Z,99792.03
2023-01-13T14:35:19.928Z,99784.22
2023-01-13T14:37:26.202Z,99784.13
2023-01-13T14:39:37.611Z,99790.06
2023-01-13T14:41:49.504Z,99784.66
2023-01-13T14:43:57.214Z,99774.03
2023-01-13T14:46:03.436Z,99781.50
2023-01-13T14:48:10.278Z,99792.56
2023-01-13T14:50:22.800Z,99785.47
2023-01-13T14:52:28.502Z,99812.25
2023-01-13T14:54:47.656Z,99814.66
2023-01-13T14:56:53.860Z,99825.09
2023-01-13T14:58:58.388Z,99835.50
2023-01-13T15:01:30.053Z,99833.84
2023-01-13T15:03:41.915Z,99846.97
2023-01-13T15:05:58.203Z,99867.19
2023-01-13T15:08:05.796Z,99875.41
2023-01-13T15:10:17.077Z,99857.69
2023-01-13T15:12:28.584Z,99852.25
2023-01-13T15:14:34.067Z,99862.31
2023-01-13T15:16:37.111Z,99861.81
2023-01-13T15:18:41.268Z,99861.28
2023-01-13T15:20:45.082Z,99873.66
2023-01-13T15:22:48.500Z,99866.03
2023-01-13T15:24:51.667Z,99872.28
2023-01-13T15:26:54.737Z,99869.78
2023-01-13T15:29:00.705Z,99866.44
2023-01-13T15:31:05.421Z,99874.34
2023-01-13T15:33:12.140Z,99873.50
2023-01-13T15:35:15.742Z,99895.38
2023-01-13T15:37:19.646Z,99902.47
2023-01-13T15:39:22.774Z,99896.41
2023-01-13T15:41:49.688Z,99897.44
2023-01-13T15:44:10.627Z,99908.06
2023-01-13T15:46:35.971Z,99879.72
2023-01-13T15:48:39.038Z,99900.06
2023-01-13T15:50:42.546Z,99906.50
2023-01-13T15:52:45.667Z,99912.94
2023-01-13T15:54:49.089Z,99910.72
2023-01-13T15:56:53.085Z,99911.19
2023-01-13T15:58:56.819Z,99903.66
2023-01-13T16:00:59.969Z,99901.34
2023-01-13T16:03:05.009Z,99902.38
2023-01-13T16:05:08.724Z,99902.56
2023-01-13T16:07:14.724Z,99902.75
2023-01-13T16:09:17.906Z,99895.00
2023-01-13T16:11:21.052Z,99906.34
2023-01-13T16:13:24.103Z,99896.03
2023-01-13T16:15:27.211Z,99906.44
2023-01-13T16:17:34.448Z,99911.63
2023-01-13T16:19:38.945Z,99918.50
2023-01-13T16:21:42.038Z,99925.38
2023-01-13T16:23:45.070Z,99928.75
2023-01-13T16:25:48.368Z,99941.59
2023-01-13T16:27:51.815Z,99944.94
2023-01-13T16:29:55.543Z,99944.84
2023-01-13T16:31:58.615Z,99973.31
2023-01-13T16:34:03.393Z,99970.53
2023-01-13T16:36:14.153Z,99960.03
2023-01-13T16:38:17.833Z,99966.91
2023-01-13T16:40:24.746Z,99982.53
2023-01-13T16:42:27.847Z,99952.34
2023-01-13T16:44:30.904Z,99968.13
2023-01-13T16:46:34.531Z,99969.91
2023-01-13T16:48:37.605Z,99975.22
2023-01-13T16:50:42.100Z,99975.22
2023-01-13T16:53:09.276Z,99977.91
2023-01-13T16:55:12.468Z,99980.50
2023-01-13T16:57:15.912Z,99975.22
2023-01-13T16:59:19.060Z,99970.00
2023-01-13T17:01:25.769Z,99970.00
2023-01-13T17:03:29.971Z,99991.75
2023-01-13T17:05:33.305Z,99973.53
2023-01-13T17:07:36.881Z,99968.34
2023-01-13T17:09:41.363Z,99978.75
2023-01-13T17:11:44.572Z,99967.50
2023-01-13T17:13:47.689Z,99982.38
2023-01-13T17:15:50.782Z,99984.13
2023-01-13T17:17:55.260Z,99978.91
2023-01-13T17:19:58.365Z,99977.25
2023-01-13T17:22:01.490Z,99985.97
2023-01-13T17:24:07.860Z,99985.97
2023-01-13T17:26:29.924Z,99977.25
2023-01-13T17:28:33.027Z,99990.25
2023-01-13T17:30:36.087Z,99985.06
2023-01-13T17:32:39.180Z,99997.97
2023-01-13T17:34:42.351Z,99998.81
2023-01-13T17:36:45.512Z,99991.84
2023-01-13T17:38:48.642Z,100001.22
2023-01-13T17:40:51.770Z,100013.31
2023-01-13T17:42:57.233Z,100003.53
2023-01-13T17:45:00.339Z,100012.91
2023-01-13T17:47:03.620Z,100001.56
2023-01-13T17:49:06.728Z,100007.53
2023-01-13T17:51:13.190Z,100017.75
2023-01-13T17:53:16.283Z,100020.25
2023-01-13T17:55:19.391Z,100024.44
2023-01-13T17:57:22.572Z,100029.47
2023-01-13T17:59:27.040Z,100038.03
2023-01-13T18:01:32.893Z,100050.94
2023-01-13T18:03:36.041Z,100047.59
2023-01-13T18:05:39.653Z,100046.75
2023-01-13T18:07:42.937Z,100066.72
2023-01-13T18:09:46.317Z,100067.75
2023-01-13T18:11:49.384Z,100079.19
2023-01-13T18:13:56.698Z,100076.84
2023-01-13T18:16:07.848Z,100092.72
2023-01-13T18:18:10.961Z,100090.50
2023-01-13T18:20:32.881Z,100097.63
2023-01-13T18:22:53.305Z,100108.22
2023-01-13T18:25:13.711Z,100100.56
2023-01-13T18:27:22.831Z,100100.81
2023-01-13T18:29:26.312Z,100104.44
2023-01-13T18:31:30.830Z,100121.03
2023-01-13T18:33:33.992Z,100125.41
2023-01-13T18:35:39.520Z,100124.66
2023-01-13T18:37:44.323Z,100116.94
2023-01-13T18:39:48.186Z,100118.69
2023-01-13T18:42:08.644Z,100127.44
2023-01-13T18:44:11.856Z,100118.91
2023-01-13T18:46:14.950Z,100135.41
2023-01-13T18:48:19.560Z,100157.16
2023-01-13T18:50:23.109Z,100145.06
2023-01-13T18:52:27.025Z,100157.31
2023-01-13T18:54:30.145Z,100150.34
2023-01-13T18:56:33.231Z,100147.94
2023-01-13T18:58:36.397Z,100149.69
2023-01-13T19:00:39.469Z,100148.00
2023-01-13T19:02:42.618Z,100166.19
2023-01-13T19:04:47.278Z,100154.13
2023-01-13T19:06:51.682Z,100170.66
2023-01-13T19:08:55.263Z,100161.16
2023-01-13T19:11:04.203Z,100175.84
2023-01-13T19:13:07.261Z,100166.38
2023-01-13T19:15:11.214Z,100170.72
2023-01-13T19:17:16.037Z,100181.13
2023-01-13T19:19:19.256Z,100175.09
2023-01-13T19:21:25.301Z,100161.16
2023-01-13T19:23:28.521Z,100193.22
2023-01-13T19:25:31.623Z,100205.28
2023-01-13T19:27:34.838Z,100200.91
2023-01-13T19:29:37.934Z,100192.19
2023-01-13T19:31:49.142Z,100196.47
2023-01-13T19:33:52.628Z,100191.28
2023-01-13T19:35:55.912Z,100194.72
2023-01-13T19:38:00.458Z,100196.41
2023-01-13T19:40:09.104Z,100186.84
2023-01-13T19:42:30.031Z,100198.91
2023-01-13T19:44:50.451Z,100202.25
2023-01-13T19:46:53.489Z,100210.81
2023-01-13T19:48:56.603Z,100213.44
2023-01-13T19:51:00.144Z,100207.31
2023-01-13T19:53:04.615Z,100223.66
2023-01-13T19:55:08.477Z,100221.78
2023-01-13T19:57:11.586Z,100226.91
2023-01-13T19:59:18.985Z,100221.63
2023-01-13T20:01:24.813Z,100232.94
2023-01-13T20:03:31.147Z,100229.41
2023-01-13T20:05:34.342Z,100254.50
2023-01-13T20:07:37.449Z,100253.56
2023-01-13T20:09:43.749Z,100265.66
2023-01-13T20:11:48.181Z,100264.81
2023-01-13T20:13:52.137Z,100255.25
2023-01-13T20:15:55.248Z,100257.00
2023-01-13T20:18:00.456Z,100250.88
2023-01-13T20:20:03.744Z,100265.66
2023-01-13T20:22:07.719Z,100260.44
2023-01-13T20:24:17.500Z,100282.19
2023-01-13T20:26:22.127Z,100288.22
2023-01-13T20:28:25.208Z,100296.03
2023-01-13T20:30:28.357Z,100291.66
2023-01-13T20:32:31.408Z,100296.03
2023-01-13T20:34:34.760Z,100279.56
2023-01-13T20:36:39.009Z,100300.38
2023-01-13T20:38:42.270Z,100289.22
2023-01-13T20:40:45.343Z,100279.66
2023-01-13T20:42:48.811Z,100294.44
2023-01-13T20:44:51.950Z,100302.22
2023-01-13T20:46:55.884Z,100303.06
2023-01-13T20:48:59.022Z,100308.19
2023-01-13T20:51:02.098Z,100312.47
2023-01-13T20:53:05.193Z,100314.16
2023-01-13T20:55:09.625Z,100323.63
2023-01-13T20:57:13.431Z,100322.69
2023-01-13T20:59:18.076Z,100308.78
2023-01-13T21:01:21.416Z,100328.66
2023-01-13T21:03:24.680Z,100345.94
2023-01-13T21:05:28.306Z,100351.91
2023-01-13T21:07:31.488Z,100337.09
2023-01-13T21:09:34.678Z,100342.13
2023-01-13T21:12:00.513Z,100337.78
2023-01-13T21:14:21.359Z,100349.03
2023-01-13T21:16:26.268Z,100349.78
2023-01-13T21:18:46.882Z,100342.69
2023-01-13T21:20:51.567Z,100347.91
2023-01-13T21:22:54.766Z,100341.78
2023-01-13T21:24:58.468Z,100345.13
2023-01-13T21:27:01.561Z,100351.19
2023-01-13T21:29:05.706Z,100358.91
2023-01-13T21:31:10.845Z,100360.59
2023-01-13T21:33:15.603Z,100349.25
2023-01-13T21:35:18.967Z,100357.81
2023-01-13T21:37:22.241Z,100371.59
2023-01-13T21:39:25.504Z,100374.09
2023-01-13T21:41:45.812Z,100378.47
2023-01-13T21:44:17.906Z,100387.19
2023-01-13T21:46:39.816Z,100382.00
2023-01-13T21:48:44.273Z,100398.44
2023-01-13T21:50:47.382Z,100396.69
2023-01-13T21:52:52.436Z,100418.41
2023-01-13T21:55:13.413Z,100409.84
2023-01-13T21:57:16.499Z,100419.41
2023-01-13T21:59:19.773Z,100433.34
2023-01-13T22:01:23.638Z,100422.09
2023-01-13T22:03:27.616Z,100425.63
2023-01-13T22:05:32.573Z,100435.19
2023-01-13T22:07:36.763Z,100438.72
2023-01-13T22:09:40.631Z,100448.28
2023-01-13T22:11:43.813Z,100444.00
2023-01-13T22:14:06.792Z,100465.66
2023-01-13T22:16:10.290Z,100439.72
2023-01-13T22:18:13.570Z,100453.63
2023-01-13T22:20:17.007Z,100468.41
2023-01-13T22:22:22.394Z,100462.34
2023-01-13T22:24:26.218Z,100463.31
2023-01-13T22:26:29.997Z,100471.13
2023-01-13T22:28:34.511Z,100476.47
2023-01-13T22:30:38.435Z,100486.88
2023-01-13T22:32:41.918Z,100490.41
2023-01-13T22:34:45.376Z,100488.72
2023-01-13T22:36:48.815Z,100487.03
2023-01-13T22:38:56.510Z,100492.25
2023-01-13T22:41:00.249Z,100489.72
2023-01-13T22:43:03.369Z,100494.06
2023-01-13T22:45:08.824Z,100498.41
2023-01-13T22:47:12.499Z,100514.88
2023-01-13T22:49:16.444Z,100502.75
2023-01-13T22:51:20.307Z,100514.88
2023-01-13T22:53:24.423Z,100518.38
2023-01-13T22:55:28.870Z,100511.47
2023-01-13T22:57:42.582Z,100518.38
2023-01-13T22:59:50.003Z,100528.78
2023-01-13T23:01:53.074Z,100527.09
2023-01-13T23:03:56.523Z,100527.94
2023-01-13T23:05:59.619Z,100533.22
2023-01-13T23:08:02.647Z,100530.59
2023-01-13T23:10:06.438Z,100538.41
2023-01-13T23:12:10.864Z,100552.25
2023-01-13T23:14:14.277Z,100554.78
2023-01-13T23:16:21.065Z,100565.25
2023-01-13T23:18:27.277Z,100573.91
2023-01-13T23:20:30.473Z,100572.22
2023-01-13T23:22:36.102Z,100581.78
2023-01-13T23:24:39.218Z,100573.06
2023-01-13T23:26:42.373Z,100575.75
2023-01-13T23:28:46.856Z,100580.03
2023-01-13T23:30:50.460Z,100574.00
2023-01-13T23:32:53.531Z,100586.16
2023-01-13T23:34:56.555Z,100577.44
2023-01-13T23:36:59.653Z,100587.84
2023-01-13T23:39:02.701Z,100587.84
2023-01-13T23:41:07.177Z,100573.91
2023-01-13T23:43:10.231Z,100587.72
2023-01-13T23:45:14.711Z,100596.28
2023-01-13T23:47:17.900Z,100598.81
2023-01-13T23:49:21.581Z,100588.34
2023-01-13T23:51:26.121Z,100592.63
2023-01-13T23:53:33.484Z,100597.75
2023-01-13T23:55:37.206Z,100587.22
2023-01-13T23:57:40.762Z,100591.63
2023-01-13T23:59:44.101Z,100601.19
